sensor_id;sensor_type;location;lat;lon;timestamp;pressure;altitude;pressure_sealevel;temperature;humidity
76052;BME280;64751;48.708;9.710;2023-03-01T00:01:12;98304.69;;;-1.78;72.05
76052;BME280;64751;48.708;9.710;2023-03-01T00:03:40;98307.06;;;-1.76;72.08
76052;BME280;64751;48.708;9.710;2023-03-01T00:06:11;98312.06;;;-1.75;72.07
76052;BME280;64751;48.708;9.710;2023-03-01T00:08:39;98309.66;;;-1.76;71.59
76052;BME280;64751;48.708;9.710;2023-03-01T00:11:09;98305.38;;;-1.84;71.32
76052;BME280;64751;48.708;9.710;2023-03-01T00:13:38;98312.97;;;-1.82;71.55
76052;BME280;64751;48.708;9.710;2023-03-01T00:16:09;98307.97;;;-1.84;71.26
76052;BME280;64751;48.708;9.710;2023-03-01T00:18:40;98324.50;;;-1.85;72.16
76052;BME280;64751;48.708;9.710;2023-03-01T00:21:08;98322.09;;;-1.86;71.85
76052;BME280;64751;48.708;9.710;2023-03-01T00:23:37;98313.50;;;-1.87;71.99
76052;BME280;64751;48.708;9.710;2023-03-01T00:26:07;98307.72;;;-1.89;72.40
76052;BME280;64751;48.708;9.710;2023-03-01T00:28:36;98304.50;;;-1.91;72.05
76052;BME280;64751;48.708;9.710;2023-03-01T00:31:04;98303.06;;;-1.93;72.18
76052;BME280;64751;48.708;9.710;2023-03-01T00:33:33;98299.88;;;-1.95;72.26
76052;BME280;64751;48.708;9.710;2023-03-01T00:36:01;98305.66;;;-1.93;73.04
76052;BME280;64751;48.708;9.710;2023-03-01T00:38:29;98313.59;;;-1.95;73.34
76052;BME280;64751;48.708;9.710;2023-03-01T00:41:03;98309.75;;;-1.99;72.87
76052;BME280;64751;48.708;9.710;2023-03-01T00:43:31;98307.16;;;-1.99;73.11
76052;BME280;64751;48.708;9.710;2023-03-01T00:46:03;98300.03;;;-1.97;72.13
76052;BME280;64751;48.708;9.710;2023-03-01T00:48:32;98293.59;;;-2.01;72.63
76052;BME280;64751;48.708;9.710;2023-03-01T00:51:05;98287.47;;;-2.00;72.53
76052;BME280;64751;48.708;9.710;2023-03-01T00:53:35;98298.44;;;-1.98;72.69
76052;BME280;64751;48.708;9.710;2023-03-01T00:56:03;98287.00;;;-2.03;73.11
76052;BME280;64751;48.708;9.710;2023-03-01T00:58:31;98293.97;;;-1.89;73.52
76052;BME280;64751;48.708;9.710;2023-03-01T01:00:59;98299.56;;;-1.86;73.31
76052;BME280;64751;48.708;9.710;2023-03-01T01:03:27;98290.22;;;-1.87;73.02
76052;BME280;64751;48.708;9.710;2023-03-01T01:05:56;98291.91;;;-1.79;74.09
76052;BME280;64751;48.708;9.710;2023-03-01T01:08:23;98280.84;;;-1.73;74.42
76052;BME280;64751;48.708;9.710;2023-03-01T01:10:51;98282.16;;;-1.63;74.17
76052;BME280;64751;48.708;9.710;2023-03-01T01:13:18;98279.47;;;-1.55;73.08
76052;BME280;64751;48.708;9.710;2023-03-01T01:15:46;98275.16;;;-1.48;73.82
76052;BME280;64751;48.708;9.710;2023-03-01T01:18:13;98278.28;;;-1.37;73.05
76052;BME280;64751;48.708;9.710;2023-03-01T01:20:41;98273.97;;;-1.30;72.60
76052;BME280;64751;48.708;9.710;2023-03-01T01:23:10;98262.56;;;-1.36;72.26
76052;BME280;64751;48.708;9.710;2023-03-01T01:25:37;98278.50;;;-1.18;72.25
76052;BME280;64751;48.708;9.710;2023-03-01T01:28:05;98277.59;;;-1.10;72.69
76052;BME280;64751;48.708;9.710;2023-03-01T01:30:35;98276.84;;;-1.04;72.40
76052;BME280;64751;48.708;9.710;2023-03-01T01:33:03;98272.88;;;-1.00;72.75
76052;BME280;64751;48.708;9.710;2023-03-01T01:35:30;98274.50;;;-0.99;71.92
76052;BME280;64751;48.708;9.710;2023-03-01T01:37:58;98272.53;;;-0.97;72.26
76052;BME280;64751;48.708;9.710;2023-03-01T01:40:27;98261.16;;;-0.96;72.32
76052;BME280;64751;48.708;9.710;2023-03-01T01:42:54;98261.00;;;-0.95;72.43
76052;BME280;64751;48.708;9.710;2023-03-01T01:45:31;98261.16;;;-0.96;71.72
76052;BME280;64751;48.708;9.710;2023-03-01T01:48:02;98261.34;;;-0.98;72.19
76052;BME280;64751;48.708;9.710;2023-03-01T01:50:31;98255.97;;;-0.96;72.28
76052;BME280;64751;48.708;9.710;2023-03-01T01:53:10;98258.19;;;-0.93;72.60
76052;BME280;64751;48.708;9.710;2023-03-01T01:55:43;98257.84;;;-0.90;72.12
76052;BME280;64751;48.708;9.710;2023-03-01T01:58:16;98227.84;;;-0.99;72.20
76052;BME280;64751;48.708;9.710;2023-03-01T02:00:46;98251.03;;;-0.91;72.28
76052;BME280;64751;48.708;9.710;2023-03-01T02:03:19;98240.66;;;-0.91;72.70
76052;BME280;64751;48.708;9.710;2023-03-01T02:05:50;98242.72;;;-0.87;72.79
76052;BME280;64751;48.708;9.710;2023-03-01T02:08:21;98247.94;;;-0.80;72.64
76052;BME280;64751;48.708;9.710;2023-03-01T02:10:55;98238.56;;;-0.81;71.86
76052;BME280;64751;48.708;9.710;2023-03-01T02:13:23;98243.38;;;-0.78;72.00
76052;BME280;64751;48.708;9.710;2023-03-01T02:15:51;98241.78;;;-0.79;72.54
76052;BME280;64751;48.708;9.710;2023-03-01T02:18:21;98234.00;;;-0.79;71.40
76052;BME280;64751;48.708;9.710;2023-03-01T02:21:17;98225.97;;;-0.84;71.81
76052;BME280;64751;48.708;9.710;2023-03-01T02:23:50;98222.41;;;-0.83;72.24
76052;BME280;64751;48.708;9.710;2023-03-01T02:26:23;98213.78;;;-0.90;72.18
76052;BME280;64751;48.708;9.710;2023-03-01T02:28:54;98221.34;;;-0.89;71.94
76052;BME280;64751;48.708;9.710;2023-03-01T02:31:22;98218.41;;;-0.86;72.35
76052;BME280;64751;48.708;9.710;2023-03-01T02:34:08;98217.78;;;-0.88;72.53
76052;BME280;64751;48.708;9.710;2023-03-01T02:36:40;98213.16;;;-0.92;72.71
76052;BME280;64751;48.708;9.710;2023-03-01T02:39:12;98211.00;;;-0.89;71.94
76052;BME280;64751;48.708;9.710;2023-03-01T02:41:46;98205.00;;;-0.89;72.25
76052;BME280;64751;48.708;9.710;2023-03-01T02:44:16;98208.19;;;-0.87;72.61
76052;BME280;64751;48.708;9.710;2023-03-01T02:46:44;98207.16;;;-0.93;73.06
76052;BME280;64751;48.708;9.710;2023-03-01T02:49:19;98195.59;;;-0.97;72.46
76052;BME280;64751;48.708;9.710;2023-03-01T02:52:14;98206.00;;;-0.90;72.76
76052;BME280;64751;48.708;9.710;2023-03-01T02:54:48;98208.59;;;-0.90;72.32
76052;BME280;64751;48.708;9.710;2023-03-01T02:57:19;98196.59;;;-0.91;72.84
76052;BME280;64751;48.708;9.710;2023-03-01T02:59:50;98198.28;;;-0.84;72.41
76052;BME280;64751;48.708;9.710;2023-03-01T03:02:21;98194.06;;;-0.85;72.24
76052;BME280;64751;48.708;9.710;2023-03-01T03:05:06;98185.13;;;-0.82;72.40
76052;BME280;64751;48.708;9.710;2023-03-01T03:07:36;98182.53;;;-0.82;72.68
76052;BME280;64751;48.708;9.710;2023-03-01T03:10:07;98182.16;;;-0.79;71.98
76052;BME280;64751;48.708;9.710;2023-03-01T03:12:37;98179.38;;;-0.78;72.93
76052;BME280;64751;48.708;9.710;2023-03-01T03:15:09;98177.34;;;-0.82;72.47
76052;BME280;64751;48.708;9.710;2023-03-01T03:17:40;98169.38;;;-0.81;73.07
76052;BME280;64751;48.708;9.710;2023-03-01T03:20:11;98169.59;;;-0.76;72.71
76052;BME280;64751;48.708;9.710;2023-03-01T03:22:39;98173.00;;;-0.75;72.71
76052;BME280;64751;48.708;9.710;2023-03-01T03:25:09;98176.56;;;-0.76;72.10
76052;BME280;64751;48.708;9.710;2023-03-01T03:27:38;98172.63;;;-0.72;72.44
76052;BME280;64751;48.708;9.710;2023-03-01T03:30:09;98175.84;;;-0.70;72.41
76052;BME280;64751;48.708;9.710;2023-03-01T03:32:38;98173.63;;;-0.73;72.65
76052;BME280;64751;48.708;9.710;2023-03-01T03:35:08;98162.38;;;-0.80;72.53
76052;BME280;64751;48.708;9.710;2023-03-01T03:37:36;98160.88;;;-0.68;72.07
76052;BME280;64751;48.708;9.710;2023-03-01T03:40:38;98159.53;;;-0.64;71.94
76052;BME280;64751;48.708;9.710;2023-03-01T03:43:07;98155.84;;;-0.76;71.96
76052;BME280;64751;48.708;9.710;2023-03-01T03:45:36;98162.69;;;-0.68;72.30
76052;BME280;64751;48.708;9.710;2023-03-01T03:48:06;98161.88;;;-0.69;71.85
76052;BME280;64751;48.708;9.710;2023-03-01T03:50:37;98161.50;;;-0.66;71.78
76052;BME280;64751;48.708;9.710;2023-03-01T03:53:07;98159.72;;;-0.65;72.13
76052;BME280;64751;48.708;9.710;2023-03-01T03:55:36;98157.72;;;-0.63;72.20
76052;BME280;64751;48.708;9.710;2023-03-01T03:58:07;98152.53;;;-0.63;71.64
76052;BME280;64751;48.708;9.710;2023-03-01T04:00:40;98150.31;;;-0.66;71.96
76052;BME280;64751;48.708;9.710;2023-03-01T04:03:09;98148.34;;;-0.64;72.27
76052;BME280;64751;48.708;9.710;2023-03-01T04:05:37;98154.94;;;-0.62;71.74
76052;BME280;64751;48.708;9.710;2023-03-01T04:08:05;98146.34;;;-0.62;71.67
76052;BME280;64751;48.708;9.710;2023-03-01T04:10:34;98148.16;;;-0.63;71.31
76052;BME280;64751;48.708;9.710;2023-03-01T04:13:03;98146.34;;;-0.62;72.24
76052;BME280;64751;48.708;9.710;2023-03-01T04:15:31;98141.78;;;-0.60;72.19
76052;BME280;64751;48.708;9.710;2023-03-01T04:18:00;98120.53;;;-0.77;71.52
76052;BME280;64751;48.708;9.710;2023-03-01T04:20:30;98141.56;;;-0.65;71.57
76052;BME280;64751;48.708;9.710;2023-03-01T04:23:01;98145.56;;;-0.63;72.03
76052;BME280;64751;48.708;9.710;2023-03-01T04:25:37;98143.59;;;-0.61;71.77
76052;BME280;64751;48.708;9.710;2023-03-01T04:28:06;98146.97;;;-0.60;72.29
76052;BME280;64751;48.708;9.710;2023-03-01T04:30:34;98141.31;;;-0.70;72.04
76052;BME280;64751;48.708;9.710;2023-03-01T04:33:05;98140.38;;;-0.63;72.21
76052;BME280;64751;48.708;9.710;2023-03-01T04:35:35;98124.00;;;-0.70;71.81
76052;BME280;64751;48.708;9.710;2023-03-01T04:38:03;98137.78;;;-0.63;72.31
76052;BME280;64751;48.708;9.710;2023-03-01T04:40:30;98139.19;;;-0.60;72.11
76052;BME280;64751;48.708;9.710;2023-03-01T04:42:58;98142.59;;;-0.60;71.66
76052;BME280;64751;48.708;9.710;2023-03-01T04:45:26;98138.72;;;-0.70;71.95
76052;BME280;64751;48.708;9.710;2023-03-01T04:47:53;98142.13;;;-0.70;72.25
76052;BME280;64751;48.708;9.710;2023-03-01T04:50:25;98138.16;;;-0.66;72.62
76052;BME280;64751;48.708;9.710;2023-03-01T04:52:53;98144.56;;;-0.62;71.69
76052;BME280;64751;48.708;9.710;2023-03-01T04:55:20;98143.19;;;-0.58;72.01
76052;BME280;64751;48.708;9.710;2023-03-01T04:57:50;98141.56;;;-0.65;71.86
76052;BME280;64751;48.708;9.710;2023-03-01T05:00:18;98133.13;;;-0.74;72.36
76052;BME280;64751;48.708;9.710;2023-03-01T05:02:51;98141.56;;;-0.65;72.23
76052;BME280;64751;48.708;9.710;2023-03-01T05:05:21;98141.69;;;-0.74;72.70
76052;BME280;64751;48.708;9.710;2023-03-01T05:07:54;98132.75;;;-0.71;72.62
76052;BME280;64751;48.708;9.710;2023-03-01T05:10:22;98121.41;;;-0.70;73.03
76052;BME280;64751;48.708;9.710;2023-03-01T05:12:51;98125.97;;;-0.72;72.58
76052;BME280;64751;48.708;9.710;2023-03-01T05:15:19;98125.56;;;-0.69;72.64
76052;BME280;64751;48.708;9.710;2023-03-01T05:17:48;98131.97;;;-0.65;72.59
76052;BME280;64751;48.708;9.710;2023-03-01T05:20:15;98132.16;;;-0.66;72.49
76052;BME280;64751;48.708;9.710;2023-03-01T05:22:43;98125.44;;;-0.61;72.45
76052;BME280;64751;48.708;9.710;2023-03-01T05:25:15;98124.03;;;-0.63;72.15
76052;BME280;64751;48.708;9.710;2023-03-01T05:27:43;98123.59;;;-0.67;72.13
76052;BME280;64751;48.708;9.710;2023-03-01T05:30:11;98125.41;;;-0.67;72.68
76052;BME280;64751;48.708;9.710;2023-03-01T05:32:42;98095.56;;;-0.85;71.98
76052;BME280;64751;48.708;9.710;2023-03-01T05:35:11;98123.53;;;-0.74;72.58
76052;BME280;64751;48.708;9.710;2023-03-01T05:37:41;98130.75;;;-0.69;72.90
76052;BME280;64751;48.708;9.710;2023-03-01T05:40:10;98133.50;;;-0.77;72.30
76052;BME280;64751;48.708;9.710;2023-03-01T05:42:44;98124.72;;;-0.76;72.64
76052;BME280;64751;48.708;9.710;2023-03-01T05:45:13;98127.16;;;-0.75;72.75
76052;BME280;64751;48.708;9.710;2023-03-01T05:47:45;98123.53;;;-0.74;72.43
76052;BME280;64751;48.708;9.710;2023-03-01T05:50:15;98121.75;;;-0.73;72.70
76052;BME280;64751;48.708;9.710;2023-03-01T05:52:46;98121.19;;;-0.68;72.47
76052;BME280;64751;48.708;9.710;2023-03-01T05:55:15;98128.78;;;-0.67;71.87
76052;BME280;64751;48.708;9.710;2023-03-01T05:57:45;98128.41;;;-0.64;72.14
76052;BME280;64751;48.708;9.710;2023-03-01T06:00:14;98108.34;;;-0.83;72.37
76052;BME280;64751;48.708;9.710;2023-03-01T06:02:42;98115.56;;;-0.79;72.35
76052;BME280;64751;48.708;9.710;2023-03-01T06:05:12;98127.94;;;-0.74;72.91
76052;BME280;64751;48.708;9.710;2023-03-01T06:07:40;98125.16;;;-0.73;72.54
76052;BME280;64751;48.708;9.710;2023-03-01T06:10:09;98125.72;;;-0.77;72.42
76052;BME280;64751;48.708;9.710;2023-03-01T06:12:38;98129.31;;;-0.78;72.45
76052;BME280;64751;48.708;9.710;2023-03-01T06:15:08;98120.91;;;-0.80;72.51
76052;BME280;64751;48.708;9.710;2023-03-01T06:17:37;98124.50;;;-0.81;72.45
76052;BME280;64751;48.708;9.710;2023-03-01T06:20:08;98121.13;;;-0.82;73.25
76052;BME280;64751;48.708;9.710;2023-03-01T06:22:36;98125.94;;;-0.79;72.73
76052;BME280;64751;48.708;9.710;2023-03-01T06:25:05;98121.91;;;-0.81;72.97
76052;BME280;64751;48.708;9.710;2023-03-01T06:27:33;98122.69;;;-0.81;73.07
76052;BME280;64751;48.708;9.710;2023-03-01T06:30:00;98121.72;;;-0.80;73.00
76052;BME280;64751;48.708;9.710;2023-03-01T06:32:31;98125.72;;;-0.77;72.37
76052;BME280;64751;48.708;9.710;2023-03-01T06:34:58;98121.16;;;-0.75;72.47
76052;BME280;64751;48.708;9.710;2023-03-01T06:37:26;98117.16;;;-0.78;72.87
76052;BME280;64751;48.708;9.710;2023-03-01T06:39:53;98115.59;;;-0.72;72.58
76052;BME280;64751;48.708;9.710;2023-03-01T06:42:22;98119.38;;;-0.75;72.16
76052;BME280;64751;48.708;9.710;2023-03-01T06:44:49;98124.50;;;-0.81;72.98
76052;BME280;64751;48.708;9.710;2023-03-01T06:47:17;98128.31;;;-0.77;72.44
76052;BME280;64751;48.708;9.710;2023-03-01T06:49:46;98126.94;;;-0.73;72.40
76052;BME280;64751;48.708;9.710;2023-03-01T06:52:13;98090.75;;;-0.94;72.94
76052;BME280;64751;48.708;9.710;2023-03-01T06:54:41;98118.97;;;-0.72;72.35
76052;BME280;64751;48.708;9.710;2023-03-01T06:57:08;98110.25;;;-0.64;72.16
76052;BME280;64751;48.708;9.710;2023-03-01T06:59:39;98116.06;;;-0.55;72.44
76052;BME280;64751;48.708;9.710;2023-03-01T07:02:09;98121.47;;;-0.57;71.71
76052;BME280;64751;48.708;9.710;2023-03-01T07:04:37;98118.88;;;-0.57;71.93
76052;BME280;64751;48.708;9.710;2023-03-01T07:07:06;98115.50;;;-0.51;71.90
76052;BME280;64751;48.708;9.710;2023-03-01T07:09:34;98114.13;;;-0.47;72.14
76052;BME280;64751;48.708;9.710;2023-03-01T07:12:01;98101.94;;;-0.53;71.29
76052;BME280;64751;48.708;9.710;2023-03-01T07:14:29;98101.69;;;-0.58;71.23
76052;BME280;64751;48.708;9.710;2023-03-01T07:16:56;98119.31;;;-0.47;71.78
76052;BME280;64751;48.708;9.710;2023-03-01T07:19:24;98117.53;;;-0.46;71.11
76052;BME280;64751;48.708;9.710;2023-03-01T07:21:51;98113.13;;;-0.46;71.42
76052;BME280;64751;48.708;9.710;2023-03-01T07:24:20;98123.75;;;-0.41;71.92
76052;BME280;64751;48.708;9.710;2023-03-01T07:26:48;98121.16;;;-0.41;70.83
76052;BME280;64751;48.708;9.710;2023-03-01T07:29:17;98115.19;;;-0.35;71.15
76052;BME280;64751;48.708;9.710;2023-03-01T07:31:45;98112.81;;;-0.30;70.88
76052;BME280;64751;48.708;9.710;2023-03-01T07:34:12;98102.03;;;-0.27;71.04
76052;BME280;64751;48.708;9.710;2023-03-01T07:36:40;98108.84;;;-0.26;70.75
76052;BME280;64751;48.708;9.710;2023-03-01T07:39:09;98103.88;;;-0.21;70.24
76052;BME280;64751;48.708;9.710;2023-03-01T07:41:38;98097.69;;;-0.20;70.05
76052;BME280;64751;48.708;9.710;2023-03-01T07:44:06;98083.28;;;-0.22;70.16
76052;BME280;64751;48.708;9.710;2023-03-01T07:46:33;98089.50;;;-0.17;70.09
76052;BME280;64751;48.708;9.710;2023-03-01T07:49:01;98079.72;;;-0.15;69.46
76052;BME280;64751;48.708;9.710;2023-03-01T07:51:28;98084.13;;;-0.09;69.61
76052;BME280;64751;48.708;9.710;2023-03-01T07:53:56;98081.38;;;-0.07;69.44
76052;BME280;64751;48.708;9.710;2023-03-01T07:56:23;98072.16;;;-0.16;69.04
76052;BME280;64751;48.708;9.710;2023-03-01T07:58:52;98087.38;;;0.00;68.97
76052;BME280;64751;48.708;9.710;2023-03-01T08:01:21;98088.59;;;0.11;69.51
76052;BME280;64751;48.708;9.710;2023-03-01T08:03:48;98083.63;;;0.16;68.62
76052;BME280;64751;48.708;9.710;2023-03-01T08:06:17;98074.03;;;0.23;68.49
76052;BME280;64751;48.708;9.710;2023-03-01T08:08:45;98076.81;;;0.21;68.08
76052;BME280;64751;48.708;9.710;2023-03-01T08:11:14;98076.03;;;0.27;68.46
76052;BME280;64751;48.708;9.710;2023-03-01T08:13:43;98073.06;;;0.37;68.77
76052;BME280;64751;48.708;9.710;2023-03-01T08:16:13;98078.47;;;0.42;68.34
76052;BME280;64751;48.708;9.710;2023-03-01T08:18:41;98078.84;;;0.45;67.49
76052;BME280;64751;48.708;9.710;2023-03-01T08:21:10;98070.66;;;0.55;68.29
76052;BME280;64751;48.708;9.710;2023-03-01T08:23:39;98071.06;;;0.58;67.08
76052;BME280;64751;48.708;9.710;2023-03-01T08:26:07;98070.06;;;0.59;67.55
76052;BME280;64751;48.708;9.710;2023-03-01T08:28:36;98074.06;;;0.62;67.03
76052;BME280;64751;48.708;9.710;2023-03-01T08:31:14;98061.69;;;0.57;67.19
76052;BME280;64751;48.708;9.710;2023-03-01T08:33:42;98070.50;;;0.69;68.00
76052;BME280;64751;48.708;9.710;2023-03-01T08:36:10;98067.69;;;0.78;66.84
76052;BME280;64751;48.708;9.710;2023-03-01T08:38:37;98072.28;;;0.76;66.24
76052;BME280;64751;48.708;9.710;2023-03-01T08:41:05;98070.25;;;0.84;66.40
76052;BME280;64751;48.708;9.710;2023-03-01T08:43:32;98055.25;;;0.93;66.78
76052;BME280;64751;48.708;9.710;2023-03-01T08:46:00;98061.47;;;0.98;66.19
76052;BME280;64751;48.708;9.710;2023-03-01T08:48:29;98063.25;;;1.04;65.98
76052;BME280;64751;48.708;9.710;2023-03-01T08:50:56;98062.41;;;1.10;67.28
76052;BME280;64751;48.708;9.710;2023-03-01T08:53:24;98049.41;;;1.17;65.48
76052;BME280;64751;48.708;9.710;2023-03-01T08:55:52;98045.78;;;1.24;65.92
76052;BME280;64751;48.708;9.710;2023-03-01T08:58:19;98044.78;;;1.32;63.98
76052;BME280;64751;48.708;9.710;2023-03-01T09:00:47;98035.94;;;1.39;63.67
76052;BME280;64751;48.708;9.710;2023-03-01T09:03:14;98045.09;;;1.48;63.67
76052;BME280;64751;48.708;9.710;2023-03-01T09:05:43;98044.72;;;1.52;63.82
76052;BME280;64751;48.708;9.710;2023-03-01T09:08:12;98032.25;;;1.60;62.80
76052;BME280;64751;48.708;9.710;2023-03-01T09:10:39;98037.03;;;1.70;63.34
76052;BME280;64751;48.708;9.710;2023-03-01T09:13:07;98033.97;;;1.73;63.85
76052;BME280;64751;48.708;9.710;2023-03-01T09:15:36;98032.75;;;1.82;61.95
76052;BME280;64751;48.708;9.710;2023-03-01T09:18:04;98035.56;;;1.80;62.04
76052;BME280;64751;48.708;9.710;2023-03-01T09:20:32;98030.31;;;1.87;62.30
76052;BME280;64751;48.708;9.710;2023-03-01T09:23:01;98029.09;;;1.89;62.36
76052;BME280;64751;48.708;9.710;2023-03-01T09:25:29;98020.44;;;1.95;63.83
76052;BME280;64751;48.708;9.710;2023-03-01T09:27:56;98027.22;;;2.03;63.70
76052;BME280;64751;48.708;9.710;2023-03-01T09:30:24;98016.00;;;2.02;60.59
76052;BME280;64751;48.708;9.710;2023-03-01T09:32:53;98007.16;;;2.10;60.17
76052;BME280;64751;48.708;9.710;2023-03-01T09:35:21;98016.72;;;2.16;59.57
76052;BME280;64751;48.708;9.710;2023-03-01T09:37:50;98010.28;;;2.18;60.26
76052;BME280;64751;48.708;9.710;2023-03-01T09:40:21;98006.84;;;2.25;58.96
76052;BME280;64751;48.708;9.710;2023-03-01T09:42:54;98007.41;;;2.27;58.86
76052;BME280;64751;48.708;9.710;2023-03-01T09:45:27;98013.03;;;2.30;59.09
76052;BME280;64751;48.708;9.710;2023-03-01T09:47:57;98008.03;;;2.29;58.61
76052;BME280;64751;48.708;9.710;2023-03-01T09:50:28;97999.78;;;2.32;58.74
76052;BME280;64751;48.708;9.710;2023-03-01T09:53:02;98001.53;;;2.38;58.42
76052;BME280;64751;48.708;9.710;2023-03-01T09:55:37;97995.25;;;2.45;58.85
76052;BME280;64751;48.708;9.710;2023-03-01T09:58:25;97986.56;;;2.51;58.69
76052;BME280;64751;48.708;9.710;2023-03-01T10:00:56;97994.72;;;2.61;59.36
76052;BME280;64751;48.708;9.710;2023-03-01T10:03:31;97978.66;;;2.64;58.47
76052;BME280;64751;48.708;9.710;2023-03-01T10:06:04;97947.88;;;2.55;58.68
76052;BME280;64751;48.708;9.710;2023-03-01T10:08:40;97964.34;;;2.73;57.51
76052;BME280;64751;48.708;9.710;2023-03-01T10:11:21;97972.66;;;2.82;57.61
76052;BME280;64751;48.708;9.710;2023-03-01T10:13:55;97967.81;;;2.85;57.81
76052;BME280;64751;48.708;9.710;2023-03-01T10:16:29;97961.72;;;2.91;58.02
76052;BME280;64751;48.708;9.710;2023-03-01T10:19:02;97961.50;;;2.93;58.16
76052;BME280;64751;48.708;9.710;2023-03-01T10:21:31;97960.41;;;3.01;57.64
76052;BME280;64751;48.708;9.710;2023-03-01T10:24:10;97951.28;;;3.10;58.03
76052;BME280;64751;48.708;9.710;2023-03-01T10:26:47;97956.66;;;3.15;56.84
76052;BME280;64751;48.708;9.710;2023-03-01T10:29:15;97964.03;;;3.18;57.22
76052;BME280;64751;48.708;9.710;2023-03-01T10:31:45;97962.00;;;3.20;56.92
76052;BME280;64751;48.708;9.710;2023-03-01T10:34:16;97968.81;;;3.21;57.76
76052;BME280;64751;48.708;9.710;2023-03-01T10:36:48;97942.72;;;3.21;57.27
76052;BME280;64751;48.708;9.710;2023-03-01T10:39:18;97948.31;;;3.24;57.00
76052;BME280;64751;48.708;9.710;2023-03-01T10:41:58;97944.25;;;3.28;58.00
76052;BME280;64751;48.708;9.710;2023-03-01T10:44:40;97931.50;;;3.20;57.39
76052;BME280;64751;48.708;9.710;2023-03-01T10:47:14;97944.97;;;3.35;56.78
76052;BME280;64751;48.708;9.710;2023-03-01T10:49:57;97935.97;;;3.31;56.36
76052;BME280;64751;48.708;9.710;2023-03-01T10:52:29;97929.16;;;3.30;56.86
76052;BME280;64751;48.708;9.710;2023-03-01T10:54:58;97914.88;;;3.33;56.73
76052;BME280;64751;48.708;9.710;2023-03-01T10:57:34;97932.41;;;3.44;55.97
76052;BME280;64751;48.708;9.710;2023-03-01T11:00:17;97917.88;;;3.48;57.35
76052;BME280;64751;48.708;9.710;2023-03-01T11:02:48;97918.59;;;3.55;56.79
76052;BME280;64751;48.708;9.710;2023-03-01T11:05:21;97916.97;;;3.72;57.14
76052;BME280;64751;48.708;9.710;2023-03-01T11:07:51;97912.63;;;3.78;55.96
76052;BME280;64751;48.708;9.710;2023-03-01T11:10:23;97910.03;;;3.78;55.99
76052;BME280;64751;48.708;9.710;2023-03-01T11:12:53;97912.53;;;3.84;56.22
76052;BME280;64751;48.708;9.710;2023-03-01T11:15:25;97908.47;;;3.88;56.27
76052;BME280;64751;48.708;9.710;2023-03-01T11:17:54;97894.25;;;3.84;55.60
76052;BME280;64751;48.708;9.710;2023-03-01T11:20:29;97895.53;;;3.93;54.99
76052;BME280;64751;48.708;9.710;2023-03-01T11:22:59;97872.44;;;3.90;55.78
76052;BME280;64751;48.708;9.710;2023-03-01T11:25:31;97887.47;;;4.06;55.39
76052;BME280;64751;48.708;9.710;2023-03-01T11:28:03;97880.88;;;4.15;55.63
76052;BME280;64751;48.708;9.710;2023-03-01T11:30:34;97875.47;;;4.17;55.12
76052;BME280;64751;48.708;9.710;2023-03-01T11:33:13;97870.78;;;4.19;56.59
76052;BME280;64751;48.708;9.710;2023-03-01T11:35:45;97866.34;;;4.19;57.14
76052;BME280;64751;48.708;9.710;2023-03-01T11:38:21;97868.50;;;4.22;57.81
76052;BME280;64751;48.708;9.710;2023-03-01T11:40:52;97863.72;;;4.19;55.63
76052;BME280;64751;48.708;9.710;2023-03-01T11:43:32;97859.09;;;4.21;56.00
76052;BME280;64751;48.708;9.710;2023-03-01T11:46:31;97859.06;;;4.45;56.84
76052;BME280;64751;48.708;9.710;2023-03-01T11:49:15;97855.75;;;4.49;56.54
76052;BME280;64751;48.708;9.710;2023-03-01T11:51:52;97852.22;;;4.55;57.11
76052;BME280;64751;48.708;9.710;2023-03-01T11:54:33;97847.91;;;4.61;55.18
76052;BME280;64751;48.708;9.710;2023-03-01T11:57:12;97842.56;;;4.56;57.17
76052;BME280;64751;48.708;9.710;2023-03-01T11:59:54;97842.56;;;4.56;55.72
76052;BME280;64751;48.708;9.710;2023-03-01T12:02:45;97824.94;;;4.51;55.55
76052;BME280;64751;48.708;9.710;2023-03-01T12:05:28;97826.59;;;4.69;54.77
76052;BME280;64751;48.708;9.710;2023-03-01T12:08:07;97822.53;;;4.73;54.95
76052;BME280;64751;48.708;9.710;2023-03-01T12:10:43;97815.38;;;4.68;55.38
76052;BME280;64751;48.708;9.710;2023-03-01T12:13:44;97809.44;;;4.73;55.99
76052;BME280;64751;48.708;9.710;2023-03-01T12:16:31;97806.03;;;4.72;56.03
76052;BME280;64751;48.708;9.710;2023-03-01T12:19:29;97788.59;;;4.78;55.79
76052;BME280;64751;48.708;9.710;2023-03-01T12:22:29;97781.94;;;4.70;55.49
76052;BME280;64751;48.708;9.710;2023-03-01T12:25:16;97781.38;;;4.68;56.26
76052;BME280;64751;48.708;9.710;2023-03-01T12:27:59;97779.72;;;4.79;55.31
76052;BME280;64751;48.708;9.710;2023-03-01T12:30:38;97788.81;;;4.88;54.93
76052;BME280;64751;48.708;9.710;2023-03-01T12:33:22;97775.34;;;4.96;55.33
76052;BME280;64751;48.708;9.710;2023-03-01T12:39:08;97759.22;;;5.16;55.41
76052;BME280;64751;48.708;9.710;2023-03-01T12:41:47;97763.31;;;5.11;52.79
76052;BME280;64751;48.708;9.710;2023-03-01T12:44:31;97759.34;;;5.09;54.07
76052;BME280;64751;48.708;9.710;2023-03-01T12:47:10;97754.91;;;5.09;53.41
76052;BME280;64751;48.708;9.710;2023-03-01T12:49:46;97732.06;;;5.05;54.18
76052;BME280;64751;48.708;9.710;2023-03-01T12:52:19;97732.63;;;5.24;54.59
76052;BME280;64751;48.708;9.710;2023-03-01T12:54:51;97734.00;;;5.26;55.32
76052;BME280;64751;48.708;9.710;2023-03-01T12:57:29;97734.09;;;5.31;54.74
76052;BME280;64751;48.708;9.710;2023-03-01T13:00:17;97725.44;;;5.31;54.96
76052;BME280;64751;48.708;9.710;2023-03-01T13:02:52;97721.84;;;5.37;53.90
76052;BME280;64751;48.708;9.710;2023-03-01T13:05:36;97720.03;;;5.37;54.61
76052;BME280;64751;48.708;9.710;2023-03-01T13:08:12;97720.34;;;5.41;54.70
76052;BME280;64751;48.708;9.710;2023-03-01T13:10:46;97722.72;;;5.42;54.88
76052;BME280;64751;48.708;9.710;2023-03-01T13:13:20;97718.97;;;5.38;53.98
76052;BME280;64751;48.708;9.710;2023-03-01T13:15:48;97723.50;;;5.43;53.80
76052;BME280;64751;48.708;9.710;2023-03-01T13:18:32;97721.13;;;5.41;53.68
76052;BME280;64751;48.708;9.710;2023-03-01T13:21:04;97721.13;;;5.41;53.75
76052;BME280;64751;48.708;9.710;2023-03-01T13:23:35;97718.97;;;5.38;53.11
76052;BME280;64751;48.708;9.710;2023-03-01T13:26:12;97713.69;;;5.33;53.86
76052;BME280;64751;48.708;9.710;2023-03-01T13:28:49;97718.50;;;5.41;54.27
76052;BME280;64751;48.708;9.710;2023-03-01T13:37:36;97718.25;;;5.43;53.90